Time;durP1;ratioP1;P1;durP2;ratioP2;P2;SDS_P1;SDS_P2;PMS_P1;PMS_P2;Temp;Humidity;BMP_temperature;BMP_pressure;BME280_temperature;BME280_humidity;BME280_pressure;Samples;Min_cycle;Max_cycle;Signal;HPM_P1;HPM_P2
2023/12/16 00:02:07;;;;;;;24.40;9.32;;;8.30;99.90;;;;;;5044331;28;20183;-65
2023/12/16 00:04:33;;;;;;;21.33;9.15;;;8.30;99.90;;;;;;5042556;28;20040;-65
2023/12/16 00:06:59;;;;;;;24.30;9.35;;;8.30;99.90;;;;;;5044072;28;20040;-65
2023/12/16 00:09:24;;;;;;;21.55;8.60;;;8.30;99.90;;;;;;5043122;28;20032;-65
2023/12/16 00:11:50;;;;;;;16.80;7.32;;;8.30;99.90;;;;;;5035949;28;20025;-65
2023/12/16 00:14:16;;;;;;;25.85;8.75;;;8.20;99.90;;;;;;5042541;28;20580;-65
2023/12/16 00:16:45;;;;;;;20.25;8.63;;;8.20;99.90;;;;;;5045624;28;20087;-66
2023/12/16 00:19:11;;;;;;;20.83;8.88;;;8.20;99.90;;;;;;5045458;28;20036;-66
2023/12/16 00:21:37;;;;;;;22.08;9.10;;;8.20;99.90;;;;;;5041357;28;20032;-65
2023/12/16 00:24:04;;;;;;;20.55;9.05;;;8.20;99.90;;;;;;5036949;28;20821;-65
2023/12/16 00:26:30;;;;;;;23.58;9.30;;;8.20;99.90;;;;;;5043522;28;20063;-65
2023/12/16 00:28:55;;;;;;;21.98;8.70;;;8.20;99.90;;;;;;5045127;28;20167;-65
2023/12/16 00:31:21;;;;;;;20.05;8.95;;;8.20;99.90;;;;;;5047162;28;20445;-65
2023/12/16 00:33:47;;;;;;;23.67;9.18;;;8.20;99.90;;;;;;5044242;28;20040;-65
2023/12/16 00:36:13;;;;;;;29.98;9.93;;;8.20;99.90;;;;;;5034157;28;20041;-65
2023/12/16 00:38:39;;;;;;;30.40;9.73;;;8.20;99.90;;;;;;5041339;28;20062;-65
2023/12/16 00:41:05;;;;;;;32.72;10.05;;;8.20;99.90;;;;;;5040647;28;20033;-65
2023/12/16 00:43:31;;;;;;;23.13;10.27;;;8.20;99.90;;;;;;5044359;28;20036;-65
2023/12/16 00:45:57;;;;;;;25.48;10.02;;;8.20;99.90;;;;;;5040797;28;20037;-65
2023/12/16 00:48:23;;;;;;;19.38;8.95;;;8.30;99.90;;;;;;5038260;28;20032;-65
2023/12/16 00:50:48;;;;;;;26.17;9.50;;;8.30;99.90;;;;;;5044172;28;20131;-65
2023/12/16 00:53:14;;;;;;;25.63;10.23;;;8.20;99.90;;;;;;5042250;28;20036;-65
2023/12/16 00:55:40;;;;;;;25.45;8.82;;;8.30;99.90;;;;;;5042190;28;20493;-65
2023/12/16 00:58:07;;;;;;;26.73;9.88;;;8.30;99.90;;;;;;5039297;28;20087;-65
2023/12/16 01:00:33;;;;;;;25.35;9.40;;;8.30;99.90;;;;;;5036892;28;20040;-65
2023/12/16 01:02:59;;;;;;;22.33;9.43;;;8.30;99.90;;;;;;5039756;28;20547;-65
2023/12/16 01:05:25;;;;;;;27.15;9.32;;;8.40;99.90;;;;;;5042761;28;20037;-65
2023/12/16 01:07:50;;;;;;;23.55;9.20;;;8.30;99.90;;;;;;5037472;28;20086;-65
2023/12/16 01:10:16;;;;;;;29.40;9.35;;;8.30;99.90;;;;;;5042561;28;20037;-65
2023/12/16 01:12:42;;;;;;;20.92;8.57;;;8.30;99.90;;;;;;5032367;28;20044;-65
2023/12/16 01:15:08;;;;;;;30.92;10.45;;;8.30;99.90;;;;;;5033116;28;20060;-65
2023/12/16 01:17:34;;;;;;;24.75;8.55;;;8.30;99.90;;;;;;5039800;28;20083;-65
2023/12/16 01:20:00;;;;;;;26.65;8.90;;;8.30;99.90;;;;;;5039764;28;20025;-65
2023/12/16 01:22:26;;;;;;;23.40;8.18;;;8.30;99.90;;;;;;5043086;28;20028;-65
2023/12/16 01:24:52;;;;;;;25.00;8.55;;;8.30;99.90;;;;;;5044708;28;20040;-65
2023/12/16 01:27:18;;;;;;;20.48;8.35;;;8.30;99.90;;;;;;5045000;28;20525;-65
2023/12/16 01:29:44;;;;;;;27.05;8.95;;;8.30;99.90;;;;;;5043010;28;20039;-65
2023/12/16 01:32:10;;;;;;;31.77;9.32;;;8.30;99.90;;;;;;5034116;28;20232;-65
2023/12/16 01:34:35;;;;;;;27.42;9.20;;;8.30;99.90;;;;;;5040258;28;20124;-65
2023/12/16 01:37:01;;;;;;;23.80;9.18;;;8.40;99.90;;;;;;5041732;28;20041;-65
2023/12/16 01:39:27;;;;;;;29.58;9.68;;;8.30;99.90;;;;;;5041121;28;20110;-65
2023/12/16 01:41:53;;;;;;;27.88;10.20;;;8.40;99.90;;;;;;5042397;28;20045;-65
2023/12/16 01:44:19;;;;;;;24.73;9.18;;;8.50;99.90;;;;;;5041137;28;20041;-65
2023/12/16 01:46:46;;;;;;;21.88;9.82;;;8.50;99.90;;;;;;5043003;28;20025;-65
2023/12/16 01:49:12;;;;;;;22.50;9.68;;;8.40;99.90;;;;;;5043797;28;20033;-66
2023/12/16 01:51:38;;;;;;;23.95;9.20;;;8.50;99.90;;;;;;5043666;28;20035;-65
2023/12/16 01:54:08;;;;;;;23.92;9.82;;;8.50;99.90;;;;;;5036165;28;20835;-65
2023/12/16 01:56:35;;;;;;;20.20;9.68;;;8.50;99.90;;;;;;5039046;28;20755;-65
2023/12/16 01:59:01;;;;;;;21.85;9.93;;;8.50;99.90;;;;;;5037783;28;20211;-65
2023/12/16 02:01:27;;;;;;;27.63;10.70;;;8.50;99.90;;;;;;5038207;28;20170;-66
2023/12/16 02:03:54;;;;;;;29.98;11.40;;;8.50;99.90;;;;;;5040022;28;20392;-65
2023/12/16 02:06:20;;;;;;;33.10;10.55;;;8.50;99.90;;;;;;5034100;28;20033;-65
2023/12/16 02:08:47;;;;;;;29.83;11.00;;;8.60;99.90;;;;;;5041506;28;20029;-65
2023/12/16 02:11:12;;;;;;;30.40;10.25;;;8.60;99.90;;;;;;5043512;28;20735;-65
2023/12/16 02:13:40;;;;;;;26.33;10.35;;;8.60;99.90;;;;;;5039161;28;20033;-65
2023/12/16 02:16:07;;;;;;;34.38;11.77;;;8.50;99.90;;;;;;5044527;28;20032;-66
2023/12/16 02:18:32;;;;;;;25.98;10.68;;;8.60;99.90;;;;;;5039444;28;20441;-65
2023/12/16 02:20:58;;;;;;;27.63;11.23;;;8.60;99.90;;;;;;5041092;28;20040;-66
2023/12/16 02:23:24;;;;;;;26.08;10.52;;;8.60;99.90;;;;;;5043586;28;20041;-65
2023/12/16 02:25:50;;;;;;;25.23;10.20;;;8.50;99.90;;;;;;5044848;28;20040;-65
2023/12/16 02:28:16;;;;;;;27.55;11.25;;;8.60;99.90;;;;;;5044385;28;20021;-66
2023/12/16 02:30:41;;;;;;;25.05;10.48;;;8.60;99.90;;;;;;5041157;28;20033;-65
2023/12/16 02:33:07;;;;;;;21.98;8.70;;;8.70;99.90;;;;;;5043495;28;20025;-66
2023/12/16 02:35:33;;;;;;;27.25;10.30;;;8.70;99.90;;;;;;5043238;28;20025;-65
2023/12/16 02:38:00;;;;;;;23.23;10.07;;;8.70;99.90;;;;;;5042560;28;20482;-65
2023/12/16 02:40:25;;;;;;;22.58;10.70;;;8.70;99.90;;;;;;5038365;28;20374;-65
2023/12/16 02:42:51;;;;;;;27.60;10.07;;;8.70;99.90;;;;;;5036244;28;20044;-65
2023/12/16 02:45:18;;;;;;;21.08;9.80;;;8.70;99.90;;;;;;5037053;28;20063;-65
2023/12/16 02:47:43;;;;;;;28.65;10.77;;;8.70;99.90;;;;;;5043460;28;20374;-65
2023/12/16 02:50:09;;;;;;;22.58;9.90;;;8.70;99.90;;;;;;5044856;28;20029;-65
2023/12/16 02:52:35;;;;;;;26.83;10.88;;;8.70;99.90;;;;;;5044076;28;20035;-65
2023/12/16 02:55:01;;;;;;;31.10;11.57;;;8.80;99.90;;;;;;5041964;28;20065;-65
2023/12/16 02:57:27;;;;;;;29.63;10.38;;;8.70;99.90;;;;;;5040962;28;20084;-65
2023/12/16 02:59:53;;;;;;;29.10;11.07;;;8.70;99.90;;;;;;5046050;28;20036;-65
2023/12/16 03:02:18;;;;;;;24.00;9.80;;;8.70;99.90;;;;;;5047765;28;20040;-65
2023/12/16 03:04:44;;;;;;;24.13;10.52;;;8.70;99.90;;;;;;5047521;28;20037;-65
2023/12/16 03:07:10;;;;;;;25.83;10.57;;;8.70;99.90;;;;;;5040928;28;20120;-65
2023/12/16 03:09:36;;;;;;;21.67;10.43;;;8.70;99.90;;;;;;5035803;28;20029;-65
2023/12/16 03:12:04;;;;;;;31.65;10.65;;;8.70;99.90;;;;;;5040067;28;20479;-65
2023/12/16 03:14:29;;;;;;;24.50;10.43;;;8.60;99.90;;;;;;5030449;28;20128;-65
2023/12/16 03:16:57;;;;;;;24.70;10.98;;;8.60;99.90;;;;;;5043278;28;20119;-65
2023/12/16 03:19:23;;;;;;;23.48;10.57;;;8.60;99.90;;;;;;5043563;28;20049;-65
2023/12/16 03:21:48;;;;;;;22.77;10.25;;;8.50;99.90;;;;;;5040378;28;20039;-65
2023/12/16 03:24:14;;;;;;;28.80;11.07;;;8.60;99.90;;;;;;5046113;28;20549;-65
2023/12/16 03:26:40;;;;;;;27.55;11.60;;;8.50;99.90;;;;;;5041992;28;20025;-65
2023/12/16 03:29:06;;;;;;;22.83;10.30;;;8.50;99.90;;;;;;5038886;28;20080;-65
2023/12/16 03:31:32;;;;;;;29.27;10.27;;;8.50;99.90;;;;;;5042872;28;20036;-65
2023/12/16 03:33:58;;;;;;;23.33;9.60;;;8.50;99.90;;;;;;5040283;28;20095;-65
2023/12/16 03:36:24;;;;;;;20.17;8.73;;;8.50;99.90;;;;;;5041388;28;20069;-65
2023/12/16 03:38:51;;;;;;;26.90;10.82;;;8.50;99.90;;;;;;5037173;28;20041;-65
2023/12/16 03:41:17;;;;;;;25.95;10.45;;;8.60;99.90;;;;;;5045588;28;20127;-65
2023/12/16 03:43:42;;;;;;;20.70;9.50;;;8.60;99.90;;;;;;5040782;28;20119;-65
2023/12/16 03:46:08;;;;;;;27.13;11.23;;;8.50;99.90;;;;;;5038663;28;20037;-65
2023/12/16 03:48:34;;;;;;;24.30;9.90;;;8.50;99.90;;;;;;5045707;28;20076;-65
2023/12/16 03:51:00;;;;;;;29.17;10.07;;;8.60;99.90;;;;;;5037901;28;20025;-65
2023/12/16 03:53:26;;;;;;;27.00;11.63;;;8.50;99.90;;;;;;5039432;28;20037;-65
2023/12/16 03:55:53;;;;;;;23.23;10.60;;;8.50;99.90;;;;;;5047077;28;20540;-65
2023/12/16 03:58:19;;;;;;;26.88;10.23;;;8.50;99.90;;;;;;5039383;28;20044;-65
2023/12/16 04:00:45;;;;;;;28.85;10.20;;;8.50;99.90;;;;;;5042306;28;20037;-65
2023/12/16 04:03:10;;;;;;;20.80;9.75;;;8.50;99.90;;;;;;5037178;28;20033;-65
2023/12/16 04:05:36;;;;;;;29.90;11.13;;;8.50;99.90;;;;;;5040893;28;20078;-65
2023/12/16 04:08:03;;;;;;;33.03;11.07;;;8.50;99.90;;;;;;5041836;28;20481;-65
2023/12/16 04:10:29;;;;;;;26.17;9.73;;;8.50;99.90;;;;;;5035215;28;20033;-65
2023/12/16 04:12:55;;;;;;;28.42;9.82;;;8.50;99.90;;;;;;5040841;28;20500;-65
2023/12/16 04:15:21;;;;;;;25.17;10.20;;;8.50;99.90;;;;;;5044220;28;20039;-65
2023/12/16 04:17:46;;;;;;;30.10;10.18;;;8.50;99.90;;;;;;5046684;28;20036;-65
2023/12/16 04:20:12;;;;;;;24.60;10.15;;;8.50;99.90;;;;;;5043595;28;20041;-65
2023/12/16 04:22:39;;;;;;;24.92;10.43;;;8.50;99.90;;;;;;5040752;28;20021;-65
2023/12/16 04:25:10;;;;;;;26.48;9.63;;;8.40;99.90;;;;;;5040071;28;20037;-65
2023/12/16 04:27:37;;;;;;;25.17;9.32;;;8.40;99.90;;;;;;5040078;28;20049;-65
2023/12/16 04:30:04;;;;;;;25.23;8.98;;;8.40;99.90;;;;;;5045765;28;20437;-66
2023/12/16 04:32:30;;;;;;;26.05;9.63;;;8.40;99.90;;;;;;5040458;28;20044;-65
2023/12/16 04:34:56;;;;;;;21.75;10.02;;;8.50;99.90;;;;;;5042295;28;20040;-65
2023/12/16 04:37:23;;;;;;;25.48;9.35;;;8.50;99.90;;;;;;5040239;28;20161;-65
2023/12/16 04:39:48;;;;;;;20.48;9.43;;;8.50;99.90;;;;;;5045416;28;20056;-65
2023/12/16 04:42:14;;;;;;;24.00;9.95;;;8.50;99.90;;;;;;5029779;28;20084;-65
2023/12/16 04:44:40;;;;;;;20.65;8.85;;;8.50;99.90;;;;;;5045538;28;20036;-65
2023/12/16 04:47:07;;;;;;;35.72;9.98;;;8.40;99.90;;;;;;5033471;28;20588;-65
2023/12/16 04:49:33;;;;;;;21.20;8.77;;;8.40;99.90;;;;;;5044170;28;20041;-66
2023/12/16 04:51:59;;;;;;;30.90;9.25;;;8.50;99.90;;;;;;5043842;28;20044;-65
2023/12/16 04:54:24;;;;;;;23.30;9.00;;;8.50;99.90;;;;;;5037789;28;20029;-65
2023/12/16 04:56:50;;;;;;;19.90;8.75;;;8.40;99.90;;;;;;5044414;28;20037;-65
2023/12/16 04:59:16;;;;;;;21.27;7.93;;;8.40;99.90;;;;;;5038552;28;20598;-65
2023/12/16 05:01:42;;;;;;;23.15;7.72;;;8.40;99.90;;;;;;5037914;28;20129;-65
2023/12/16 05:04:08;;;;;;;23.48;8.25;;;8.40;99.90;;;;;;5044000;28;20052;-65
2023/12/16 05:06:34;;;;;;;18.85;8.55;;;8.40;99.90;;;;;;5038150;28;20029;-65
2023/12/16 05:09:00;;;;;;;20.90;8.25;;;8.40;99.90;;;;;;5043824;28;20037;-65
2023/12/16 05:11:26;;;;;;;25.25;8.45;;;8.50;99.90;;;;;;5044402;28;20044;-65
2023/12/16 05:13:52;;;;;;;22.52;7.70;;;8.50;99.90;;;;;;5045621;28;20033;-65
2023/12/16 05:16:19;;;;;;;22.20;7.78;;;8.50;99.90;;;;;;5043422;28;20465;-65
2023/12/16 05:18:45;;;;;;;20.13;7.40;;;8.50;99.90;;;;;;5040657;28;20099;-65
2023/12/16 05:21:12;;;;;;;21.75;8.13;;;8.50;99.90;;;;;;5039493;28;20041;-65
2023/12/16 05:23:38;;;;;;;20.08;7.25;;;8.50;99.90;;;;;;5036732;28;20120;-65
2023/12/16 05:26:04;;;;;;;17.10;7.38;;;8.40;99.90;;;;;;5035311;28;20076;-65
2023/12/16 05:28:33;;;;;;;17.70;7.13;;;8.40;99.90;;;;;;5042735;28;20061;-65
2023/12/16 05:30:59;;;;;;;20.63;6.82;;;8.40;99.90;;;;;;5041078;28;20040;-65
2023/12/16 05:33:25;;;;;;;21.23;7.72;;;8.40;99.90;;;;;;5034602;28;20060;-65
2023/12/16 05:35:51;;;;;;;21.55;7.57;;;8.40;99.90;;;;;;5036262;28;20441;-65
2023/12/16 05:38:16;;;;;;;23.52;7.47;;;8.40;99.90;;;;;;5044343;28;20036;-65
2023/12/16 05:40:42;;;;;;;20.70;7.10;;;8.40;99.90;;;;;;5033741;28;20041;-65
2023/12/16 05:43:08;;;;;;;16.63;6.88;;;8.40;99.90;;;;;;5040232;28;20037;-65
2023/12/16 05:45:34;;;;;;;18.13;6.88;;;8.30;99.90;;;;;;5044877;28;20685;-65
2023/12/16 05:48:00;;;;;;;20.17;7.57;;;8.30;99.90;;;;;;5038823;28;20030;-65
2023/12/16 05:50:26;;;;;;;18.55;7.25;;;8.30;99.90;;;;;;5044670;28;20037;-63
2023/12/16 05:52:51;;;;;;;17.63;7.15;;;8.30;99.90;;;;;;5020712;28;20033;-66
2023/12/16 05:55:17;;;;;;;25.02;7.57;;;8.30;99.90;;;;;;5033723;28;20112;-65
2023/12/16 05:57:43;;;;;;;23.67;6.97;;;8.30;99.90;;;;;;5034640;28;20036;-65
2023/12/16 06:00:09;;;;;;;20.52;6.80;;;8.30;99.90;;;;;;5034473;28;20044;-65
2023/12/16 06:02:36;;;;;;;19.92;8.00;;;8.30;99.90;;;;;;5044733;28;20654;-65
2023/12/16 06:05:02;;;;;;;21.55;6.60;;;8.30;99.90;;;;;;5043117;28;20048;-65
2023/12/16 06:07:28;;;;;;;16.60;6.75;;;8.30;99.90;;;;;;5040776;28;20501;-65
2023/12/16 06:09:54;;;;;;;25.02;7.63;;;8.30;99.90;;;;;;5043853;28;20036;-65
2023/12/16 06:12:20;;;;;;;22.27;6.75;;;8.40;99.90;;;;;;5040780;28;20036;-65
2023/12/16 06:14:46;;;;;;;17.55;6.63;;;8.40;99.90;;;;;;5039731;28;20039;-65
2023/12/16 06:17:12;;;;;;;25.00;7.18;;;8.40;99.90;;;;;;5037023;28;20061;-65
2023/12/16 06:19:38;;;;;;;14.63;6.47;;;8.40;99.90;;;;;;5035610;28;20048;-66
2023/12/16 06:22:04;;;;;;;16.42;6.45;;;8.40;99.90;;;;;;5040549;28;20433;-66
2023/12/16 06:24:30;;;;;;;20.67;6.75;;;8.50;99.90;;;;;;5045044;28;20135;-66
2023/12/16 06:26:56;;;;;;;18.70;6.20;;;8.40;99.90;;;;;;5044541;28;20033;-66
2023/12/16 06:29:21;;;;;;;14.30;5.78;;;8.50;99.90;;;;;;5045986;28;20041;-66
2023/12/16 06:31:47;;;;;;;17.17;7.00;;;8.50;99.90;;;;;;5038767;28;20040;-66
2023/12/16 06:34:16;;;;;;;24.88;6.53;;;8.50;99.90;;;;;;5046188;28;20055;-66
2023/12/16 06:36:42;;;;;;;20.08;5.88;;;8.60;99.90;;;;;;5040519;28;20501;-66
2023/12/16 06:39:08;;;;;;;20.63;6.00;;;8.60;99.90;;;;;;5038897;28;20133;-66
2023/12/16 06:41:33;;;;;;;20.20;7.22;;;8.60;99.90;;;;;;5040369;28;20075;-64
2023/12/16 06:44:00;;;;;;;23.73;6.75;;;8.60;99.90;;;;;;5037261;28;20033;-66
2023/12/16 06:46:26;;;;;;;17.80;6.78;;;8.60;99.90;;;;;;5045676;28;20099;-66
2023/12/16 06:48:51;;;;;;;17.05;6.53;;;8.60;99.90;;;;;;5048316;28;20488;-65
2023/12/16 06:51:17;;;;;;;15.02;5.90;;;8.60;99.90;;;;;;5047133;28;20901;-65
2023/12/16 06:53:43;;;;;;;19.20;5.97;;;8.60;99.90;;;;;;5041503;28;20069;-65
2023/12/16 06:56:09;;;;;;;15.93;6.38;;;8.60;99.90;;;;;;5046484;28;20044;-65
2023/12/16 06:58:37;;;;;;;16.40;6.45;;;8.60;99.90;;;;;;5047466;28;20033;-65
2023/12/16 07:01:03;;;;;;;11.70;6.13;;;8.60;99.90;;;;;;5047600;28;20048;-65
2023/12/16 07:03:28;;;;;;;15.82;5.80;;;8.60;99.90;;;;;;5041747;28;20033;-65
2023/12/16 07:05:55;;;;;;;16.08;5.75;;;8.60;99.90;;;;;;5042924;28;20044;-65
2023/12/16 07:08:21;;;;;;;18.55;6.57;;;8.60;99.90;;;;;;5035798;28;20029;-64
2023/12/16 07:10:47;;;;;;;16.23;6.30;;;8.60;99.90;;;;;;5043142;28;20021;-65
2023/12/16 07:13:12;;;;;;;20.73;7.57;;;8.60;99.90;;;;;;5029136;28;20088;-65
2023/12/16 07:15:38;;;;;;;17.95;6.30;;;8.50;99.90;;;;;;5041012;28;20029;-65
2023/12/16 07:18:04;;;;;;;16.50;6.32;;;8.50;99.90;;;;;;5035655;28;20674;-65
2023/12/16 07:20:30;;;;;;;20.40;6.90;;;8.50;99.90;;;;;;5034945;28;20025;-64
2023/12/16 07:22:56;;;;;;;24.65;6.78;;;8.50;99.90;;;;;;5044197;28;20062;-65
2023/12/16 07:25:22;;;;;;;15.55;5.72;;;8.50;99.90;;;;;;5043780;28;20040;-65
2023/12/16 07:27:48;;;;;;;16.35;6.05;;;8.50;99.90;;;;;;5034213;28;20817;-65
2023/12/16 07:30:16;;;;;;;11.57;5.38;;;8.50;99.90;;;;;;5042704;28;20037;-68
2023/12/16 07:32:42;;;;;;;19.60;6.18;;;8.50;99.90;;;;;;5039878;28;20075;-65
2023/12/16 07:35:12;;;;;;;16.85;5.45;;;8.60;99.90;;;;;;5043604;28;20033;-66
2023/12/16 07:37:40;;;;;;;13.65;5.47;;;8.60;99.90;;;;;;5038447;28;20048;-66
2023/12/16 07:40:08;;;;;;;16.70;5.60;;;8.50;99.90;;;;;;5044635;28;20044;-66
2023/12/16 07:42:36;;;;;;;16.55;5.70;;;8.50;99.90;;;;;;5045007;28;20036;-66
2023/12/16 07:45:02;;;;;;;15.80;5.75;;;8.50;99.90;;;;;;5039068;28;20034;-65
2023/12/16 07:47:28;;;;;;;16.58;5.72;;;8.70;99.90;;;;;;5040106;28;20079;-66
2023/12/16 07:49:54;;;;;;;21.92;5.70;;;8.60;99.90;;;;;;5044145;28;20036;-66
2023/12/16 07:52:21;;;;;;;14.73;6.07;;;8.70;99.90;;;;;;5045661;28;20029;-65
2023/12/16 07:54:47;;;;;;;20.13;6.35;;;8.60;99.90;;;;;;5037726;28;20030;-66
2023/12/16 07:57:13;;;;;;;18.40;6.15;;;8.60;99.90;;;;;;5045684;28;20052;-66
2023/12/16 07:59:42;;;;;;;21.52;8.73;;;8.60;99.90;;;;;;5041901;28;20037;-65
2023/12/16 08:02:08;;;;;;;17.75;7.15;;;8.70;99.90;;;;;;5044930;28;20039;-66
2023/12/16 08:04:40;;;;;;;17.30;6.53;;;8.70;99.90;;;;;;5041996;28;20120;-66
2023/12/16 08:07:06;;;;;;;14.27;6.05;;;8.70;99.90;;;;;;5044193;28;20060;-66
2023/12/16 08:09:32;;;;;;;18.38;5.68;;;8.70;99.90;;;;;;5043820;28;20342;-66
2023/12/16 08:11:58;;;;;;;12.32;4.65;;;8.70;99.90;;;;;;5044343;28;20029;-66
2023/12/16 08:14:25;;;;;;;12.10;5.50;;;8.80;99.90;;;;;;5043450;28;20120;-65
2023/12/16 08:16:51;;;;;;;9.38;4.00;;;8.80;99.90;;;;;;5040766;28;20024;-66
2023/12/16 08:19:17;;;;;;;10.80;3.80;;;8.80;99.90;;;;;;5038215;28;20056;-66
2023/12/16 08:21:43;;;;;;;7.90;3.13;;;8.90;99.90;;;;;;5042835;28;20045;-66
2023/12/16 08:24:09;;;;;;;12.73;4.13;;;8.90;99.90;;;;;;5044387;28;20801;-66
2023/12/16 08:26:34;;;;;;;10.75;4.18;;;9.00;99.90;;;;;;5041017;28;20039;-66
2023/12/16 08:29:00;;;;;;;9.50;3.55;;;9.00;99.90;;;;;;5039034;28;20465;-66
2023/12/16 08:31:26;;;;;;;11.50;4.53;;;9.00;99.90;;;;;;5042238;28;20497;-66
2023/12/16 08:33:52;;;;;;;19.20;5.57;;;9.10;99.90;;;;;;5042270;28;20036;-65
2023/12/16 08:36:18;;;;;;;16.17;4.82;;;9.00;99.90;;;;;;5043203;28;20507;-66
2023/12/16 08:38:44;;;;;;;19.38;5.15;;;8.90;99.90;;;;;;5041501;28;20033;-66
2023/12/16 08:41:10;;;;;;;12.50;4.50;;;8.80;99.90;;;;;;5040950;28;20075;-65
2023/12/16 08:43:36;;;;;;;13.45;3.47;;;8.90;99.90;;;;;;5044001;28;20128;-64
2023/12/16 08:46:05;;;;;;;7.32;3.45;;;8.80;99.90;;;;;;5035419;28;20112;-65
2023/12/16 08:48:32;;;;;;;10.20;4.45;;;8.90;99.90;;;;;;5043757;28;20033;-65
2023/12/16 08:50:57;;;;;;;12.20;3.90;;;9.00;99.90;;;;;;5036518;28;20037;-65
2023/12/16 08:53:24;;;;;;;9.35;4.35;;;9.00;99.90;;;;;;5041565;28;20033;-66
2023/12/16 08:55:50;;;;;;;21.67;5.70;;;9.00;99.90;;;;;;5042877;28;20493;-66
2023/12/16 08:58:17;;;;;;;14.88;4.07;;;9.00;99.90;;;;;;5038450;28;20459;-66
2023/12/16 09:00:43;;;;;;;11.38;4.80;;;8.80;99.90;;;;;;5040443;28;20567;-66
2023/12/16 09:03:09;;;;;;;10.40;3.03;;;8.80;99.90;;;;;;5038695;28;20037;-66
2023/12/16 09:05:36;;;;;;;12.15;3.08;;;8.80;99.90;;;;;;5037570;28;20028;-66
2023/12/16 09:08:03;;;;;;;9.25;3.58;;;8.90;99.90;;;;;;5040919;28;20460;-65
2023/12/16 09:10:29;;;;;;;12.65;3.83;;;8.90;99.90;;;;;;5038636;28;20025;-66
2023/12/16 09:12:55;;;;;;;17.90;4.03;;;8.90;99.90;;;;;;5043124;28;20032;-66
2023/12/16 09:15:20;;;;;;;9.98;2.88;;;8.90;99.90;;;;;;5038179;28;20037;-66
2023/12/16 09:17:49;;;;;;;6.88;3.10;;;8.90;99.90;;;;;;5029638;28;20060;-66
2023/12/16 09:20:15;;;;;;;8.30;2.20;;;9.00;99.90;;;;;;5044308;28;20457;-66
2023/12/16 09:22:41;;;;;;;15.75;3.03;;;9.10;99.90;;;;;;5037350;28;20135;-65
2023/12/16 09:25:08;;;;;;;6.88;2.30;;;9.00;99.90;;;;;;5042531;28;20043;-66
2023/12/16 09:27:35;;;;;;;12.00;2.55;;;9.00;99.90;;;;;;5042214;28;20086;-66
2023/12/16 09:30:02;;;;;;;12.20;3.78;;;9.00;99.90;;;;;;5040801;28;20033;-66
2023/12/16 09:32:28;;;;;;;16.55;3.40;;;9.10;99.90;;;;;;5045123;28;20616;-66
2023/12/16 09:34:54;;;;;;;22.20;3.13;;;9.10;99.90;;;;;;5033386;28;20678;-66
2023/12/16 09:37:20;;;;;;;11.85;4.45;;;9.10;99.90;;;;;;5036295;28;20025;-66
2023/12/16 09:39:45;;;;;;;34.50;11.82;;;9.20;99.90;;;;;;5035481;28;20040;-66
2023/12/16 09:42:13;;;;;;;30.80;15.02;;;9.40;99.90;;;;;;5043835;28;20128;-66
2023/12/16 09:44:41;;;;;;;21.77;11.60;;;9.70;99.90;;;;;;5039239;28;20152;-66
2023/12/16 09:47:12;;;;;;;48.63;20.73;;;10.00;99.90;;;;;;5042883;28;20083;-67
2023/12/16 09:49:41;;;;;;;33.00;16.95;;;10.00;99.90;;;;;;5040306;28;20116;-67
2023/12/16 09:52:07;;;;;;;15.90;7.63;;;9.80;99.90;;;;;;5040774;28;20455;-67
2023/12/16 09:54:33;;;;;;;17.17;5.97;;;9.70;99.90;;;;;;5041145;28;20088;-66
2023/12/16 09:57:01;;;;;;;19.63;6.60;;;9.40;99.90;;;;;;5039183;28;20123;-66
2023/12/16 09:59:28;;;;;;;18.90;6.35;;;9.40;99.90;;;;;;5049231;28;20041;-66
2023/12/16 10:02:06;;;;;;;17.75;5.53;;;9.40;99.90;;;;;;5046095;28;20501;-66
2023/12/16 10:04:34;;;;;;;17.25;6.18;;;9.40;99.90;;;;;;5045753;28;20033;-66
2023/12/16 10:07:00;;;;;;;15.73;6.28;;;9.50;99.90;;;;;;5045093;28;20032;-66
2023/12/16 10:09:26;;;;;;;16.98;5.78;;;9.40;99.90;;;;;;5044820;28;20052;-66
2023/12/16 10:11:54;;;;;;;14.13;3.95;;;9.60;99.90;;;;;;5041217;28;20029;-66
2023/12/16 10:14:20;;;;;;;10.02;3.20;;;10.60;99.90;;;;;;5039539;28;20032;-66
2023/12/16 10:16:51;;;;;;;9.13;3.05;;;11.30;99.90;;;;;;5047860;28;20033;-67
2023/12/16 10:19:19;;;;;;;9.45;3.33;;;12.90;97.80;;;;;;5035813;28;20527;-67
2023/12/16 10:21:46;;;;;;;13.52;4.25;;;14.80;94.00;;;;;;5046770;28;20033;-68
2023/12/16 10:24:14;;;;;;;9.50;3.20;;;16.20;90.30;;;;;;5047139;28;20033;-66
2023/12/16 10:26:43;;;;;;;8.63;3.53;;;17.20;84.50;;;;;;5029592;28;20036;-66
2023/12/16 10:29:10;;;;;;;10.57;2.83;;;17.60;79.80;;;;;;5041227;28;20104;-66
2023/12/16 10:31:38;;;;;;;15.73;3.40;;;17.60;78.80;;;;;;5044130;28;20218;-66
2023/12/16 10:34:04;;;;;;;14.02;2.53;;;17.80;77.30;;;;;;5046658;28;20037;-64
2023/12/16 10:36:30;;;;;;;7.15;2.53;;;17.60;75.40;;;;;;5044176;28;20561;-67
2023/12/16 10:38:57;;;;;;;11.88;3.15;;;17.40;79.10;;;;;;5042605;28;20029;-66
2023/12/16 10:41:23;;;;;;;10.60;3.22;;;17.10;79.00;;;;;;5045080;28;20036;-66
2023/12/16 10:43:49;;;;;;;8.32;2.80;;;16.20;79.10;;;;;;5047554;28;20082;-67
2023/12/16 10:46:17;;;;;;;7.65;2.53;;;15.90;81.60;;;;;;5045151;28;20147;-66
2023/12/16 10:48:47;;;;;;;15.88;3.83;;;15.30;82.40;;;;;;5044500;28;20025;-66
2023/12/16 10:51:15;;;;;;;19.63;5.28;;;14.30;84.30;;;;;;5046428;28;20033;-65
2023/12/16 10:53:56;;;;;;;13.15;4.60;;;12.80;90.00;;;;;;5044080;28;20047;-67
2023/12/16 10:56:28;;;;;;;6.75;2.78;;;12.20;92.30;;;;;;5043413;28;20350;-67
2023/12/16 10:59:03;;;;;;;10.75;3.65;;;12.10;93.80;;;;;;5041451;28;20123;-66
2023/12/16 11:01:34;;;;;;;11.77;4.00;;;12.00;93.60;;;;;;5043577;28;20106;-66
2023/12/16 11:04:11;;;;;;;11.00;4.28;;;12.00;94.00;;;;;;5036506;28;20116;-66
2023/12/16 11:07:07;;;;;;;8.93;3.20;;;11.90;95.00;;;;;;5046222;28;20371;-66
2023/12/16 11:09:34;;;;;;;9.02;3.35;;;11.60;95.50;;;;;;5038877;28;20472;-66
2023/12/16 11:12:01;;;;;;;7.38;2.65;;;11.20;95.90;;;;;;5037349;28;20112;-65
2023/12/16 11:14:29;;;;;;;10.32;2.80;;;11.10;97.20;;;;;;5034741;28;20382;-64
2023/12/16 11:16:58;;;;;;;11.00;2.65;;;11.00;97.20;;;;;;5039775;28;20040;-67
2023/12/16 11:19:33;;;;;;;8.85;2.60;;;11.10;97.80;;;;;;5036407;28;20116;-66
2023/12/16 11:22:00;;;;;;;7.37;2.00;;;10.60;97.60;;;;;;5042946;28;20464;-66
2023/12/16 11:24:25;;;;;;;7.90;2.40;;;10.60;99.10;;;;;;5044472;28;20040;-66
2023/12/16 11:26:55;;;;;;;7.80;2.53;;;10.70;98.90;;;;;;5039116;28;20037;-66
2023/12/16 11:29:24;;;;;;;11.32;3.20;;;10.90;99.00;;;;;;5040562;28;20439;-66
2023/12/16 11:31:58;;;;;;;17.35;4.28;;;11.00;98.40;;;;;;5039635;28;20033;-66
2023/12/16 11:34:43;;;;;;;9.60;2.40;;;11.00;99.10;;;;;;5041348;28;20428;-67
2023/12/16 11:37:10;;;;;;;14.27;3.08;;;10.90;97.70;;;;;;5042484;28;20522;-66
2023/12/16 11:39:38;;;;;;;8.73;2.78;;;10.70;99.20;;;;;;5041926;28;20052;-65
2023/12/16 11:42:10;;;;;;;9.40;3.33;;;10.40;99.20;;;;;;5040763;28;20086;-67
2023/12/16 11:44:55;;;;;;;5.97;2.65;;;10.30;99.90;;;;;;5036144;28;20524;-67
2023/12/16 11:47:27;;;;;;;5.88;2.88;;;10.30;99.90;;;;;;5046727;28;20086;-67
2023/12/16 11:49:55;;;;;;;11.07;2.60;;;10.30;99.90;;;;;;5039912;28;20104;-67
2023/12/16 11:52:22;;;;;;;10.15;3.10;;;10.30;99.90;;;;;;5037326;28;20711;-67
2023/12/16 11:54:56;;;;;;;14.57;3.17;;;10.30;99.90;;;;;;5042412;28;20158;-67
2023/12/16 11:57:23;;;;;;;14.20;2.67;;;10.30;99.90;;;;;;5046133;28;20055;-68
2023/12/16 11:59:50;;;;;;;11.80;3.03;;;10.30;99.90;;;;;;5041172;28;20037;-67
2023/12/16 12:02:17;;;;;;;5.20;3.55;;;10.20;99.90;;;;;;5034782;28;20044;-67
2023/12/16 12:04:43;;;;;;;12.93;3.85;;;10.30;99.90;;;;;;5046949;28;20559;-67
2023/12/16 12:07:09;;;;;;;13.63;3.67;;;10.30;99.90;;;;;;5037402;28;20025;-70
2023/12/16 12:09:35;;;;;;;8.32;4.03;;;10.10;99.90;;;;;;5042576;28;20079;-67
2023/12/16 12:12:02;;;;;;;13.60;3.72;;;10.10;99.90;;;;;;5046218;28;20029;-67
2023/12/16 12:14:27;;;;;;;11.50;4.18;;;10.10;99.90;;;;;;5046423;28;20037;-67
2023/12/16 12:16:53;;;;;;;12.20;4.03;;;10.00;99.90;;;;;;5040551;28;20079;-67
2023/12/16 12:19:19;;;;;;;15.50;5.07;;;9.90;99.90;;;;;;5043255;28;20048;-68
2023/12/16 12:21:45;;;;;;;35.20;11.60;;;9.80;99.90;;;;;;5041496;28;20839;-66
2023/12/16 12:24:11;;;;;;;30.05;10.23;;;9.80;99.90;;;;;;5045619;28;20029;-67
2023/12/16 12:26:38;;;;;;;13.88;5.53;;;9.90;99.90;;;;;;5041694;28;20053;-68
2023/12/16 12:29:04;;;;;;;19.27;7.30;;;9.90;99.90;;;;;;5045940;28;20031;-68
2023/12/16 12:31:30;;;;;;;13.00;4.53;;;9.90;99.90;;;;;;5044979;28;20124;-67
2023/12/16 12:33:56;;;;;;;29.25;9.13;;;9.80;99.90;;;;;;5042575;28;20033;-68
2023/12/16 12:36:24;;;;;;;11.50;5.10;;;9.80;99.90;;;;;;5045900;28;20102;-68
2023/12/16 12:38:54;;;;;;;19.20;8.70;;;9.70;99.90;;;;;;5039753;28;20599;-68
2023/12/16 12:41:20;;;;;;;19.55;5.75;;;9.70;99.90;;;;;;5044881;28;20590;-68